Africa, Pennsylvania
Current Conditions -  °F | °C
As of 4:07 AM on Monday 24 Nov 2014 (Local Time) from KHGR Reporting Station
Broken Clouds Broken Clouds  
Wind Chill: 60°   Ceiling: 1700
Heat Index: 60°   Visibility: 10mi
Dew Point: 57°   Wind: 18mph
Humidity: 90%   Direction: 170°S
Pressure: 29.59"   Gusts: 24mph
Location:  39.8035°N, 77.9346°W
Report Text: KHGR 240907Z AUTO 17016G21KT 10SM FEW008 BKN017 16/14 A2959 RMK AO2 T01560139
Loading
Personal Weather Stations






























Interactive Weather Map New forecast layout! Learn more

10-Day Weather Forecast

Advertisements
Track Severe Weather on mobile